sensor_id;sensor_type;location;lat;lon;timestamp;P1;durP1;ratioP1;P2;durP2;ratioP2
15482;SDS011;7843;50.330;7.312;2024-01-30T00:00:46;5.05;;;2.92;;
15482;SDS011;7843;50.330;7.312;2024-01-30T00:03:13;4.47;;;3.03;;
15482;SDS011;7843;50.330;7.312;2024-01-30T00:05:39;4.65;;;2.35;;
15482;SDS011;7843;50.330;7.312;2024-01-30T00:08:06;4.65;;;2.88;;
15482;SDS011;7843;50.330;7.312;2024-01-30T00:10:33;4.90;;;2.72;;
15482;SDS011;7843;50.330;7.312;2024-01-30T00:12:59;3.20;;;2.70;;
15482;SDS011;7843;50.330;7.312;2024-01-30T00:15:26;4.03;;;2.70;;
15482;SDS011;7843;50.330;7.312;2024-01-30T00:17:53;7.93;;;2.80;;
15482;SDS011;7843;50.330;7.312;2024-01-30T00:20:20;6.50;;;3.10;;
15482;SDS011;7843;50.330;7.312;2024-01-30T00:22:47;5.15;;;3.35;;
15482;SDS011;7843;50.330;7.312;2024-01-30T00:25:13;3.47;;;2.65;;
15482;SDS011;7843;50.330;7.312;2024-01-30T00:27:40;6.97;;;2.75;;
15482;SDS011;7843;50.330;7.312;2024-01-30T00:30:07;6.03;;;2.88;;
15482;SDS011;7843;50.330;7.312;2024-01-30T00:32:35;5.17;;;2.33;;
15482;SDS011;7843;50.330;7.312;2024-01-30T00:35:01;5.27;;;3.07;;
15482;SDS011;7843;50.330;7.312;2024-01-30T00:37:28;4.15;;;2.10;;
15482;SDS011;7843;50.330;7.312;2024-01-30T00:39:55;8.63;;;3.30;;
15482;SDS011;7843;50.330;7.312;2024-01-30T00:42:22;7.77;;;3.30;;
15482;SDS011;7843;50.330;7.312;2024-01-30T00:44:50;4.90;;;2.10;;
15482;SDS011;7843;50.330;7.312;2024-01-30T00:47:17;5.95;;;3.38;;
15482;SDS011;7843;50.330;7.312;2024-01-30T00:49:43;7.20;;;2.33;;
15482;SDS011;7843;50.330;7.312;2024-01-30T00:52:10;2.83;;;2.30;;
15482;SDS011;7843;50.330;7.312;2024-01-30T00:54:37;4.90;;;1.83;;
15482;SDS011;7843;50.330;7.312;2024-01-30T00:57:04;4.63;;;2.60;;
15482;SDS011;7843;50.330;7.312;2024-01-30T00:59:31;4.25;;;2.45;;
15482;SDS011;7843;50.330;7.312;2024-01-30T01:01:58;5.90;;;2.17;;
15482;SDS011;7843;50.330;7.312;2024-01-30T01:04:24;2.97;;;2.17;;
15482;SDS011;7843;50.330;7.312;2024-01-30T01:06:53;3.13;;;2.13;;
15482;SDS011;7843;50.330;7.312;2024-01-30T01:09:19;3.60;;;2.20;;
15482;SDS011;7843;50.330;7.312;2024-01-30T01:11:46;5.63;;;2.58;;
15482;SDS011;7843;50.330;7.312;2024-01-30T01:14:13;3.22;;;2.13;;
15482;SDS011;7843;50.330;7.312;2024-01-30T01:16:40;4.57;;;1.87;;
15482;SDS011;7843;50.330;7.312;2024-01-30T01:19:06;2.58;;;2.20;;
15482;SDS011;7843;50.330;7.312;2024-01-30T01:21:33;7.45;;;2.05;;
15482;SDS011;7843;50.330;7.312;2024-01-30T01:24:00;2.87;;;2.50;;
15482;SDS011;7843;50.330;7.312;2024-01-30T01:26:27;3.05;;;2.25;;
15482;SDS011;7843;50.330;7.312;2024-01-30T01:28:54;5.13;;;2.45;;
15482;SDS011;7843;50.330;7.312;2024-01-30T01:31:21;5.45;;;3.22;;
15482;SDS011;7843;50.330;7.312;2024-01-30T01:33:50;3.35;;;2.10;;
15482;SDS011;7843;50.330;7.312;2024-01-30T01:36:17;3.70;;;2.67;;
15482;SDS011;7843;50.330;7.312;2024-01-30T01:38:44;3.97;;;1.75;;
15482;SDS011;7843;50.330;7.312;2024-01-30T01:41:11;3.30;;;1.92;;
15482;SDS011;7843;50.330;7.312;2024-01-30T01:43:37;4.35;;;1.83;;
15482;SDS011;7843;50.330;7.312;2024-01-30T01:46:06;3.75;;;1.92;;
15482;SDS011;7843;50.330;7.312;2024-01-30T01:48:34;2.30;;;2.10;;
15482;SDS011;7843;50.330;7.312;2024-01-30T01:51:00;2.47;;;1.73;;
15482;SDS011;7843;50.330;7.312;2024-01-30T01:53:28;5.93;;;2.65;;
15482;SDS011;7843;50.330;7.312;2024-01-30T01:55:55;2.45;;;1.90;;
15482;SDS011;7843;50.330;7.312;2024-01-30T01:58:23;3.53;;;2.53;;
15482;SDS011;7843;50.330;7.312;2024-01-30T02:00:55;3.22;;;2.10;;
15482;SDS011;7843;50.330;7.312;2024-01-30T02:03:23;2.55;;;1.73;;
15482;SDS011;7843;50.330;7.312;2024-01-30T02:05:52;2.63;;;1.85;;
15482;SDS011;7843;50.330;7.312;2024-01-30T02:08:19;2.17;;;1.70;;
15482;SDS011;7843;50.330;7.312;2024-01-30T02:10:46;2.07;;;1.50;;
15482;SDS011;7843;50.330;7.312;2024-01-30T02:13:13;2.10;;;1.90;;
15482;SDS011;7843;50.330;7.312;2024-01-30T02:15:40;2.42;;;1.30;;
15482;SDS011;7843;50.330;7.312;2024-01-30T02:18:07;2.50;;;2.13;;
15482;SDS011;7843;50.330;7.312;2024-01-30T02:20:34;3.50;;;1.88;;
15482;SDS011;7843;50.330;7.312;2024-01-30T02:23:01;2.60;;;1.95;;
15482;SDS011;7843;50.330;7.312;2024-01-30T02:25:36;1.73;;;1.52;;
15482;SDS011;7843;50.330;7.312;2024-01-30T02:28:13;4.22;;;2.60;;
15482;SDS011;7843;50.330;7.312;2024-01-30T02:30:40;9.73;;;2.75;;
15482;SDS011;7843;50.330;7.312;2024-01-30T02:33:09;4.25;;;3.03;;
15482;SDS011;7843;50.330;7.312;2024-01-30T02:35:35;2.92;;;2.13;;
15482;SDS011;7843;50.330;7.312;2024-01-30T02:38:02;3.80;;;2.20;;
15482;SDS011;7843;50.330;7.312;2024-01-30T02:40:29;3.67;;;2.63;;
15482;SDS011;7843;50.330;7.312;2024-01-30T02:42:57;4.60;;;2.60;;
15482;SDS011;7843;50.330;7.312;2024-01-30T02:45:25;4.47;;;2.07;;
15482;SDS011;7843;50.330;7.312;2024-01-30T02:47:52;5.63;;;2.30;;
15482;SDS011;7843;50.330;7.312;2024-01-30T02:50:18;6.63;;;2.45;;
15482;SDS011;7843;50.330;7.312;2024-01-30T02:52:45;3.13;;;1.93;;
15482;SDS011;7843;50.330;7.312;2024-01-30T02:55:12;2.93;;;2.33;;
15482;SDS011;7843;50.330;7.312;2024-01-30T02:57:39;2.60;;;1.55;;
15482;SDS011;7843;50.330;7.312;2024-01-30T03:00:06;3.05;;;1.80;;
15482;SDS011;7843;50.330;7.312;2024-01-30T03:02:36;2.80;;;1.90;;
15482;SDS011;7843;50.330;7.312;2024-01-30T03:05:03;5.80;;;1.80;;
15482;SDS011;7843;50.330;7.312;2024-01-30T03:07:32;2.63;;;2.10;;
15482;SDS011;7843;50.330;7.312;2024-01-30T03:10:00;3.22;;;2.33;;
15482;SDS011;7843;50.330;7.312;2024-01-30T03:12:27;2.55;;;1.75;;
15482;SDS011;7843;50.330;7.312;2024-01-30T03:14:54;7.43;;;2.33;;
15482;SDS011;7843;50.330;7.312;2024-01-30T03:17:20;2.75;;;1.90;;
15482;SDS011;7843;50.330;7.312;2024-01-30T03:19:47;6.15;;;2.13;;
15482;SDS011;7843;50.330;7.312;2024-01-30T03:22:14;4.65;;;2.58;;
15482;SDS011;7843;50.330;7.312;2024-01-30T03:24:40;5.90;;;1.95;;
15482;SDS011;7843;50.330;7.312;2024-01-30T03:27:08;4.30;;;2.20;;
15482;SDS011;7843;50.330;7.312;2024-01-30T03:29:35;4.13;;;2.10;;
15482;SDS011;7843;50.330;7.312;2024-01-30T03:32:01;2.92;;;2.15;;
15482;SDS011;7843;50.330;7.312;2024-01-30T03:34:30;2.72;;;2.20;;
15482;SDS011;7843;50.330;7.312;2024-01-30T03:36:57;2.40;;;1.60;;
15482;SDS011;7843;50.330;7.312;2024-01-30T03:39:23;2.70;;;1.95;;
15482;SDS011;7843;50.330;7.312;2024-01-30T03:41:50;3.10;;;2.50;;
15482;SDS011;7843;50.330;7.312;2024-01-30T03:44:17;3.22;;;2.38;;
15482;SDS011;7843;50.330;7.312;2024-01-30T03:46:44;1.85;;;1.70;;
15482;SDS011;7843;50.330;7.312;2024-01-30T03:49:10;4.23;;;2.87;;
15482;SDS011;7843;50.330;7.312;2024-01-30T03:51:37;5.03;;;1.60;;
15482;SDS011;7843;50.330;7.312;2024-01-30T03:54:04;2.77;;;2.00;;
15482;SDS011;7843;50.330;7.312;2024-01-30T03:56:31;4.90;;;1.60;;
15482;SDS011;7843;50.330;7.312;2024-01-30T03:58:58;2.03;;;1.83;;
15482;SDS011;7843;50.330;7.312;2024-01-30T04:01:29;3.15;;;1.60;;
15482;SDS011;7843;50.330;7.312;2024-01-30T04:03:56;4.88;;;2.25;;
15482;SDS011;7843;50.330;7.312;2024-01-30T04:06:22;5.57;;;3.15;;
15482;SDS011;7843;50.330;7.312;2024-01-30T04:08:50;3.75;;;1.92;;
15482;SDS011;7843;50.330;7.312;2024-01-30T04:11:18;6.35;;;3.10;;
15482;SDS011;7843;50.330;7.312;2024-01-30T04:13:46;4.32;;;2.90;;
15482;SDS011;7843;50.330;7.312;2024-01-30T04:16:20;3.58;;;2.30;;
15482;SDS011;7843;50.330;7.312;2024-01-30T04:18:48;3.05;;;2.15;;
15482;SDS011;7843;50.330;7.312;2024-01-30T04:21:15;2.38;;;2.03;;
15482;SDS011;7843;50.330;7.312;2024-01-30T04:23:42;4.85;;;2.20;;
15482;SDS011;7843;50.330;7.312;2024-01-30T04:26:08;2.25;;;1.75;;
15482;SDS011;7843;50.330;7.312;2024-01-30T04:28:35;4.78;;;2.30;;
15482;SDS011;7843;50.330;7.312;2024-01-30T04:31:01;1.98;;;1.77;;
15482;SDS011;7843;50.330;7.312;2024-01-30T04:33:28;3.50;;;2.15;;
15482;SDS011;7843;50.330;7.312;2024-01-30T04:35:55;2.47;;;1.50;;
15482;SDS011;7843;50.330;7.312;2024-01-30T04:38:22;3.33;;;1.65;;
15482;SDS011;7843;50.330;7.312;2024-01-30T04:40:48;2.10;;;1.52;;
15482;SDS011;7843;50.330;7.312;2024-01-30T04:43:15;2.10;;;1.95;;
15482;SDS011;7843;50.330;7.312;2024-01-30T04:45:42;4.00;;;2.70;;
15482;SDS011;7843;50.330;7.312;2024-01-30T04:48:09;2.33;;;1.60;;
15482;SDS011;7843;50.330;7.312;2024-01-30T04:50:35;4.00;;;2.30;;
15482;SDS011;7843;50.330;7.312;2024-01-30T04:53:02;2.60;;;1.70;;
15482;SDS011;7843;50.330;7.312;2024-01-30T04:55:29;2.63;;;1.75;;
15482;SDS011;7843;50.330;7.312;2024-01-30T04:57:56;2.03;;;1.83;;
15482;SDS011;7843;50.330;7.312;2024-01-30T05:00:22;4.30;;;2.58;;
15482;SDS011;7843;50.330;7.312;2024-01-30T05:02:49;3.05;;;1.80;;
15482;SDS011;7843;50.330;7.312;2024-01-30T05:05:16;1.50;;;1.38;;
15482;SDS011;7843;50.330;7.312;2024-01-30T05:07:42;4.40;;;1.83;;
15482;SDS011;7843;50.330;7.312;2024-01-30T05:10:09;2.40;;;1.80;;
15482;SDS011;7843;50.330;7.312;2024-01-30T05:12:36;3.60;;;2.08;;
15482;SDS011;7843;50.330;7.312;2024-01-30T05:15:03;1.85;;;1.23;;
15482;SDS011;7843;50.330;7.312;2024-01-30T05:17:30;1.80;;;1.60;;
15482;SDS011;7843;50.330;7.312;2024-01-30T05:19:56;3.00;;;1.60;;
15482;SDS011;7843;50.330;7.312;2024-01-30T05:22:23;2.70;;;1.70;;
15482;SDS011;7843;50.330;7.312;2024-01-30T05:24:50;3.42;;;2.08;;
15482;SDS011;7843;50.330;7.312;2024-01-30T05:27:17;5.03;;;2.42;;
15482;SDS011;7843;50.330;7.312;2024-01-30T05:29:43;2.45;;;2.20;;
15482;SDS011;7843;50.330;7.312;2024-01-30T05:32:10;2.63;;;1.83;;
15482;SDS011;7843;50.330;7.312;2024-01-30T05:34:37;3.80;;;1.80;;
15482;SDS011;7843;50.330;7.312;2024-01-30T05:37:03;3.00;;;1.90;;
15482;SDS011;7843;50.330;7.312;2024-01-30T05:39:30;1.60;;;1.42;;
15482;SDS011;7843;50.330;7.312;2024-01-30T05:42:01;4.03;;;2.80;;
15482;SDS011;7843;50.330;7.312;2024-01-30T05:44:28;3.10;;;1.90;;
15482;SDS011;7843;50.330;7.312;2024-01-30T05:46:55;2.35;;;1.35;;
15482;SDS011;7843;50.330;7.312;2024-01-30T05:49:21;7.35;;;2.90;;
15482;SDS011;7843;50.330;7.312;2024-01-30T05:51:48;3.28;;;1.83;;
15482;SDS011;7843;50.330;7.312;2024-01-30T05:54:15;4.20;;;1.80;;
15482;SDS011;7843;50.330;7.312;2024-01-30T05:56:42;4.40;;;2.57;;
15482;SDS011;7843;50.330;7.312;2024-01-30T05:59:09;10.87;;;3.57;;
15482;SDS011;7843;50.330;7.312;2024-01-30T06:01:36;4.30;;;3.30;;
15482;SDS011;7843;50.330;7.312;2024-01-30T06:04:03;6.87;;;3.43;;
15482;SDS011;7843;50.330;7.312;2024-01-30T06:06:29;10.98;;;3.83;;
15482;SDS011;7843;50.330;7.312;2024-01-30T06:08:56;14.40;;;5.90;;
15482;SDS011;7843;50.330;7.312;2024-01-30T06:11:23;13.87;;;6.10;;
15482;SDS011;7843;50.330;7.312;2024-01-30T06:13:50;17.50;;;5.37;;
15482;SDS011;7843;50.330;7.312;2024-01-30T06:16:16;22.15;;;5.68;;
15482;SDS011;7843;50.330;7.312;2024-01-30T06:18:43;8.68;;;3.05;;
15482;SDS011;7843;50.330;7.312;2024-01-30T06:21:10;5.60;;;2.00;;
15482;SDS011;7843;50.330;7.312;2024-01-30T06:23:38;1.77;;;1.37;;
15482;SDS011;7843;50.330;7.312;2024-01-30T06:26:06;6.07;;;3.47;;
15482;SDS011;7843;50.330;7.312;2024-01-30T06:28:33;10.38;;;3.38;;
15482;SDS011;7843;50.330;7.312;2024-01-30T06:31:01;5.93;;;3.90;;
15482;SDS011;7843;50.330;7.312;2024-01-30T06:33:27;8.68;;;3.90;;
15482;SDS011;7843;50.330;7.312;2024-01-30T06:35:54;6.00;;;3.33;;
15482;SDS011;7843;50.330;7.312;2024-01-30T06:38:21;2.67;;;2.28;;
15482;SDS011;7843;50.330;7.312;2024-01-30T06:40:48;5.30;;;2.80;;
15482;SDS011;7843;50.330;7.312;2024-01-30T06:43:14;4.35;;;2.78;;
15482;SDS011;7843;50.330;7.312;2024-01-30T06:45:41;1.70;;;1.48;;
15482;SDS011;7843;50.330;7.312;2024-01-30T06:48:08;2.35;;;1.90;;
15482;SDS011;7843;50.330;7.312;2024-01-30T06:50:35;2.08;;;1.70;;
15482;SDS011;7843;50.330;7.312;2024-01-30T06:53:02;4.55;;;2.80;;
15482;SDS011;7843;50.330;7.312;2024-01-30T06:55:29;2.60;;;2.38;;
15482;SDS011;7843;50.330;7.312;2024-01-30T06:57:55;4.28;;;2.45;;
15482;SDS011;7843;50.330;7.312;2024-01-30T07:00:22;5.20;;;2.28;;
15482;SDS011;7843;50.330;7.312;2024-01-30T07:02:49;5.13;;;2.58;;
15482;SDS011;7843;50.330;7.312;2024-01-30T07:05:16;5.40;;;2.15;;
15482;SDS011;7843;50.330;7.312;2024-01-30T07:07:43;3.58;;;1.75;;
15482;SDS011;7843;50.330;7.312;2024-01-30T07:10:10;2.17;;;1.88;;
15482;SDS011;7843;50.330;7.312;2024-01-30T07:12:37;3.30;;;2.20;;
15482;SDS011;7843;50.330;7.312;2024-01-30T07:15:04;4.32;;;2.33;;
15482;SDS011;7843;50.330;7.312;2024-01-30T07:17:34;2.20;;;1.67;;
15482;SDS011;7843;50.330;7.312;2024-01-30T07:20:01;2.15;;;1.52;;
15482;SDS011;7843;50.330;7.312;2024-01-30T07:22:31;3.45;;;2.03;;
15482;SDS011;7843;50.330;7.312;2024-01-30T07:24:58;5.22;;;2.85;;
15482;SDS011;7843;50.330;7.312;2024-01-30T07:27:24;4.07;;;2.53;;
15482;SDS011;7843;50.330;7.312;2024-01-30T07:29:51;5.57;;;2.35;;
15482;SDS011;7843;50.330;7.312;2024-01-30T07:32:18;5.72;;;2.47;;
15482;SDS011;7843;50.330;7.312;2024-01-30T07:34:45;7.38;;;4.35;;
15482;SDS011;7843;50.330;7.312;2024-01-30T07:37:14;4.95;;;3.88;;
15482;SDS011;7843;50.330;7.312;2024-01-30T07:39:42;8.73;;;4.20;;
15482;SDS011;7843;50.330;7.312;2024-01-30T07:42:09;7.35;;;3.33;;
15482;SDS011;7843;50.330;7.312;2024-01-30T07:44:35;6.05;;;3.15;;
15482;SDS011;7843;50.330;7.312;2024-01-30T07:47:02;4.28;;;3.00;;
15482;SDS011;7843;50.330;7.312;2024-01-30T07:49:29;2.90;;;2.22;;
15482;SDS011;7843;50.330;7.312;2024-01-30T07:51:56;10.45;;;3.35;;
15482;SDS011;7843;50.330;7.312;2024-01-30T07:54:22;3.70;;;1.85;;
15482;SDS011;7843;50.330;7.312;2024-01-30T07:56:50;5.97;;;3.35;;
15482;SDS011;7843;50.330;7.312;2024-01-30T07:59:16;12.00;;;3.15;;
15482;SDS011;7843;50.330;7.312;2024-01-30T08:01:43;3.60;;;2.95;;
15482;SDS011;7843;50.330;7.312;2024-01-30T08:04:10;3.53;;;1.92;;
15482;SDS011;7843;50.330;7.312;2024-01-30T08:06:36;2.25;;;1.85;;
15482;SDS011;7843;50.330;7.312;2024-01-30T08:09:04;4.05;;;2.33;;
15482;SDS011;7843;50.330;7.312;2024-01-30T08:11:32;4.28;;;2.38;;
15482;SDS011;7843;50.330;7.312;2024-01-30T08:13:58;6.85;;;3.70;;
15482;SDS011;7843;50.330;7.312;2024-01-30T08:16:25;6.30;;;3.10;;
15482;SDS011;7843;50.330;7.312;2024-01-30T08:18:52;7.72;;;3.97;;
15482;SDS011;7843;50.330;7.312;2024-01-30T08:21:22;4.70;;;2.53;;
15482;SDS011;7843;50.330;7.312;2024-01-30T08:23:48;4.63;;;2.15;;
15482;SDS011;7843;50.330;7.312;2024-01-30T08:26:15;6.90;;;2.97;;
15482;SDS011;7843;50.330;7.312;2024-01-30T08:28:42;5.28;;;2.85;;
15482;SDS011;7843;50.330;7.312;2024-01-30T08:31:10;2.67;;;2.42;;
15482;SDS011;7843;50.330;7.312;2024-01-30T08:33:38;3.20;;;2.85;;
15482;SDS011;7843;50.330;7.312;2024-01-30T08:36:05;3.67;;;2.40;;
15482;SDS011;7843;50.330;7.312;2024-01-30T08:38:32;4.65;;;2.85;;
15482;SDS011;7843;50.330;7.312;2024-01-30T08:40:59;4.97;;;2.65;;
15482;SDS011;7843;50.330;7.312;2024-01-30T08:43:25;4.18;;;2.42;;
15482;SDS011;7843;50.330;7.312;2024-01-30T08:45:52;7.40;;;2.77;;
15482;SDS011;7843;50.330;7.312;2024-01-30T08:48:19;4.85;;;2.55;;
15482;SDS011;7843;50.330;7.312;2024-01-30T08:50:47;4.20;;;2.67;;
15482;SDS011;7843;50.330;7.312;2024-01-30T08:53:14;5.63;;;2.97;;
15482;SDS011;7843;50.330;7.312;2024-01-30T08:55:41;4.22;;;1.85;;
15482;SDS011;7843;50.330;7.312;2024-01-30T08:58:07;5.50;;;2.70;;
15482;SDS011;7843;50.330;7.312;2024-01-30T09:00:34;2.80;;;2.47;;
15482;SDS011;7843;50.330;7.312;2024-01-30T09:03:01;3.78;;;2.58;;
15482;SDS011;7843;50.330;7.312;2024-01-30T09:05:27;6.38;;;3.85;;
15482;SDS011;7843;50.330;7.312;2024-01-30T09:07:54;8.40;;;2.72;;
15482;SDS011;7843;50.330;7.312;2024-01-30T09:10:21;3.25;;;2.20;;
15482;SDS011;7843;50.330;7.312;2024-01-30T09:12:48;4.00;;;2.55;;
15482;SDS011;7843;50.330;7.312;2024-01-30T09:15:15;5.28;;;2.40;;
15482;SDS011;7843;50.330;7.312;2024-01-30T09:17:42;3.30;;;2.58;;
15482;SDS011;7843;50.330;7.312;2024-01-30T09:20:09;6.35;;;3.00;;
15482;SDS011;7843;50.330;7.312;2024-01-30T09:22:36;5.05;;;2.92;;
15482;SDS011;7843;50.330;7.312;2024-01-30T09:25:02;5.18;;;2.22;;
15482;SDS011;7843;50.330;7.312;2024-01-30T09:27:29;7.90;;;4.43;;
15482;SDS011;7843;50.330;7.312;2024-01-30T09:29:57;4.40;;;2.90;;
15482;SDS011;7843;50.330;7.312;2024-01-30T09:32:24;3.90;;;2.08;;
15482;SDS011;7843;50.330;7.312;2024-01-30T09:34:50;4.45;;;1.92;;
15482;SDS011;7843;50.330;7.312;2024-01-30T09:37:17;3.22;;;2.45;;
15482;SDS011;7843;50.330;7.312;2024-01-30T09:39:44;5.60;;;2.67;;
15482;SDS011;7843;50.330;7.312;2024-01-30T09:44:54;3.67;;;1.88;;
15482;SDS011;7843;50.330;7.312;2024-01-30T09:47:22;2.92;;;2.15;;
15482;SDS011;7843;50.330;7.312;2024-01-30T09:49:48;3.75;;;2.58;;
15482;SDS011;7843;50.330;7.312;2024-01-30T09:52:16;5.47;;;3.00;;
15482;SDS011;7843;50.330;7.312;2024-01-30T09:54:44;3.35;;;2.08;;
15482;SDS011;7843;50.330;7.312;2024-01-30T09:57:11;4.47;;;2.23;;
15482;SDS011;7843;50.330;7.312;2024-01-30T09:59:38;1.90;;;1.63;;
15482;SDS011;7843;50.330;7.312;2024-01-30T10:02:05;6.70;;;2.80;;
15482;SDS011;7843;50.330;7.312;2024-01-30T10:04:33;4.13;;;2.50;;
15482;SDS011;7843;50.330;7.312;2024-01-30T10:07:01;6.22;;;3.03;;
15482;SDS011;7843;50.330;7.312;2024-01-30T10:09:31;2.97;;;2.33;;
15482;SDS011;7843;50.330;7.312;2024-01-30T10:11:59;5.40;;;2.60;;
15482;SDS011;7843;50.330;7.312;2024-01-30T10:14:25;4.53;;;2.40;;
15482;SDS011;7843;50.330;7.312;2024-01-30T10:16:52;4.57;;;2.85;;
15482;SDS011;7843;50.330;7.312;2024-01-30T10:19:19;3.95;;;2.60;;
15482;SDS011;7843;50.330;7.312;2024-01-30T10:21:46;3.92;;;2.67;;
15482;SDS011;7843;50.330;7.312;2024-01-30T10:24:12;6.18;;;2.75;;
15482;SDS011;7843;50.330;7.312;2024-01-30T10:26:40;4.85;;;2.58;;
15482;SDS011;7843;50.330;7.312;2024-01-30T10:29:09;4.75;;;2.28;;
15482;SDS011;7843;50.330;7.312;2024-01-30T10:31:36;3.80;;;2.28;;
15482;SDS011;7843;50.330;7.312;2024-01-30T10:34:03;10.73;;;5.60;;
15482;SDS011;7843;50.330;7.312;2024-01-30T10:36:31;3.65;;;2.40;;
15482;SDS011;7843;50.330;7.312;2024-01-30T10:39:06;4.47;;;2.97;;
15482;SDS011;7843;50.330;7.312;2024-01-30T10:41:34;9.77;;;4.93;;
15482;SDS011;7843;50.330;7.312;2024-01-30T10:44:09;6.82;;;3.63;;
15482;SDS011;7843;50.330;7.312;2024-01-30T10:46:39;7.47;;;3.33;;
15482;SDS011;7843;50.330;7.312;2024-01-30T10:49:10;6.15;;;3.15;;
15482;SDS011;7843;50.330;7.312;2024-01-30T10:51:39;5.90;;;2.92;;
15482;SDS011;7843;50.330;7.312;2024-01-30T10:54:07;7.20;;;3.55;;
15482;SDS011;7843;50.330;7.312;2024-01-30T10:56:35;7.32;;;3.25;;
15482;SDS011;7843;50.330;7.312;2024-01-30T10:59:03;6.43;;;3.47;;
15482;SDS011;7843;50.330;7.312;2024-01-30T11:01:30;6.50;;;3.30;;
15482;SDS011;7843;50.330;7.312;2024-01-30T11:03:57;6.50;;;3.08;;
15482;SDS011;7843;50.330;7.312;2024-01-30T11:06:27;3.70;;;2.40;;
15482;SDS011;7843;50.330;7.312;2024-01-30T11:09:03;5.93;;;3.20;;
15482;SDS011;7843;50.330;7.312;2024-01-30T11:14:28;5.63;;;2.97;;
15482;SDS011;7843;50.330;7.312;2024-01-30T11:16:59;8.02;;;4.15;;
15482;SDS011;7843;50.330;7.312;2024-01-30T11:19:26;9.05;;;4.13;;
15482;SDS011;7843;50.330;7.312;2024-01-30T11:21:54;5.55;;;3.30;;
15482;SDS011;7843;50.330;7.312;2024-01-30T11:24:23;4.20;;;2.78;;
15482;SDS011;7843;50.330;7.312;2024-01-30T11:26:55;4.93;;;3.22;;
15482;SDS011;7843;50.330;7.312;2024-01-30T11:29:29;4.32;;;2.92;;
15482;SDS011;7843;50.330;7.312;2024-01-30T11:31:57;10.30;;;5.20;;
15482;SDS011;7843;50.330;7.312;2024-01-30T11:34:24;6.70;;;4.00;;
15482;SDS011;7843;50.330;7.312;2024-01-30T11:37:12;12.07;;;4.75;;
15482;SDS011;7843;50.330;7.312;2024-01-30T11:39:39;6.90;;;3.70;;
15482;SDS011;7843;50.330;7.312;2024-01-30T11:42:07;5.73;;;3.20;;
15482;SDS011;7843;50.330;7.312;2024-01-30T11:44:35;6.35;;;3.78;;
15482;SDS011;7843;50.330;7.312;2024-01-30T11:47:01;9.68;;;5.03;;
15482;SDS011;7843;50.330;7.312;2024-01-30T11:49:29;5.65;;;3.50;;
15482;SDS011;7843;50.330;7.312;2024-01-30T11:51:56;8.93;;;4.28;;
15482;SDS011;7843;50.330;7.312;2024-01-30T11:54:23;5.90;;;3.75;;
15482;SDS011;7843;50.330;7.312;2024-01-30T11:56:50;10.77;;;2.92;;
15482;SDS011;7843;50.330;7.312;2024-01-30T11:59:16;19.20;;;8.43;;
15482;SDS011;7843;50.330;7.312;2024-01-30T12:01:43;15.18;;;7.03;;
15482;SDS011;7843;50.330;7.312;2024-01-30T12:04:10;7.50;;;4.15;;
15482;SDS011;7843;50.330;7.312;2024-01-30T12:06:37;15.02;;;6.57;;
15482;SDS011;7843;50.330;7.312;2024-01-30T12:09:04;11.63;;;4.95;;
15482;SDS011;7843;50.330;7.312;2024-01-30T12:11:32;7.55;;;4.22;;
15482;SDS011;7843;50.330;7.312;2024-01-30T12:13:58;4.00;;;2.65;;
15482;SDS011;7843;50.330;7.312;2024-01-30T12:16:25;8.98;;;4.38;;
15482;SDS011;7843;50.330;7.312;2024-01-30T12:18:59;10.00;;;5.10;;
15482;SDS011;7843;50.330;7.312;2024-01-30T12:21:27;12.07;;;4.63;;
15482;SDS011;7843;50.330;7.312;2024-01-30T12:23:56;8.63;;;4.78;;
15482;SDS011;7843;50.330;7.312;2024-01-30T12:26:24;9.80;;;4.80;;
15482;SDS011;7843;50.330;7.312;2024-01-30T12:28:54;18.05;;;7.57;;
15482;SDS011;7843;50.330;7.312;2024-01-30T12:31:25;12.27;;;4.63;;
15482;SDS011;7843;50.330;7.312;2024-01-30T12:33:54;10.68;;;4.45;;
15482;SDS011;7843;50.330;7.312;2024-01-30T12:36:21;7.55;;;3.35;;
15482;SDS011;7843;50.330;7.312;2024-01-30T12:38:48;5.55;;;2.55;;
15482;SDS011;7843;50.330;7.312;2024-01-30T12:41:15;4.55;;;2.42;;
15482;SDS011;7843;50.330;7.312;2024-01-30T12:43:42;3.50;;;2.00;;
15482;SDS011;7843;50.330;7.312;2024-01-30T12:46:09;6.22;;;2.85;;
15482;SDS011;7843;50.330;7.312;2024-01-30T12:48:36;7.93;;;2.40;;
15482;SDS011;7843;50.330;7.312;2024-01-30T12:51:03;5.45;;;2.67;;
15482;SDS011;7843;50.330;7.312;2024-01-30T12:53:30;6.25;;;2.80;;
15482;SDS011;7843;50.330;7.312;2024-01-30T12:55:57;7.18;;;4.20;;
15482;SDS011;7843;50.330;7.312;2024-01-30T12:58:24;8.30;;;4.10;;
15482;SDS011;7843;50.330;7.312;2024-01-30T13:00:50;4.93;;;2.92;;
15482;SDS011;7843;50.330;7.312;2024-01-30T13:03:17;8.07;;;4.13;;
15482;SDS011;7843;50.330;7.312;2024-01-30T13:05:44;5.10;;;2.97;;
15482;SDS011;7843;50.330;7.312;2024-01-30T13:08:11;5.10;;;3.17;;
15482;SDS011;7843;50.330;7.312;2024-01-30T13:10:37;5.82;;;2.90;;
15482;SDS011;7843;50.330;7.312;2024-01-30T13:13:04;7.83;;;3.10;;
15482;SDS011;7843;50.330;7.312;2024-01-30T13:15:33;6.07;;;3.28;;
15482;SDS011;7843;50.330;7.312;2024-01-30T13:17:59;5.20;;;2.67;;
15482;SDS011;7843;50.330;7.312;2024-01-30T13:20:26;6.85;;;3.20;;
15482;SDS011;7843;50.330;7.312;2024-01-30T13:22:53;5.15;;;3.30;;
15482;SDS011;7843;50.330;7.312;2024-01-30T13:25:20;6.05;;;2.78;;
15482;SDS011;7843;50.330;7.312;2024-01-30T13:27:46;5.07;;;2.67;;
15482;SDS011;7843;50.330;7.312;2024-01-30T13:30:16;8.80;;;3.75;;
15482;SDS011;7843;50.330;7.312;2024-01-30T13:32:43;6.05;;;2.95;;
15482;SDS011;7843;50.330;7.312;2024-01-30T13:35:10;6.28;;;3.38;;
15482;SDS011;7843;50.330;7.312;2024-01-30T13:37:37;5.28;;;2.33;;
15482;SDS011;7843;50.330;7.312;2024-01-30T13:40:04;8.77;;;3.22;;
15482;SDS011;7843;50.330;7.312;2024-01-30T13:42:36;4.30;;;2.58;;
15482;SDS011;7843;50.330;7.312;2024-01-30T13:45:03;11.57;;;2.65;;
15482;SDS011;7843;50.330;7.312;2024-01-30T13:47:30;8.63;;;3.13;;
15482;SDS011;7843;50.330;7.312;2024-01-30T13:49:57;6.80;;;3.33;;
15482;SDS011;7843;50.330;7.312;2024-01-30T13:52:23;5.95;;;3.00;;
15482;SDS011;7843;50.330;7.312;2024-01-30T13:54:51;6.20;;;2.85;;
15482;SDS011;7843;50.330;7.312;2024-01-30T13:57:18;5.47;;;2.50;;
15482;SDS011;7843;50.330;7.312;2024-01-30T13:59:44;4.80;;;2.60;;
15482;SDS011;7843;50.330;7.312;2024-01-30T14:02:11;4.57;;;2.42;;
15482;SDS011;7843;50.330;7.312;2024-01-30T14:04:38;5.00;;;2.70;;
15482;SDS011;7843;50.330;7.312;2024-01-30T14:07:05;5.20;;;2.80;;
15482;SDS011;7843;50.330;7.312;2024-01-30T14:09:32;6.47;;;2.80;;
15482;SDS011;7843;50.330;7.312;2024-01-30T14:12:00;5.63;;;2.78;;
15482;SDS011;7843;50.330;7.312;2024-01-30T14:14:27;5.60;;;3.03;;
15482;SDS011;7843;50.330;7.312;2024-01-30T14:16:53;5.27;;;2.80;;
15482;SDS011;7843;50.330;7.312;2024-01-30T14:19:20;5.97;;;2.90;;
15482;SDS011;7843;50.330;7.312;2024-01-30T14:21:48;4.78;;;3.10;;
15482;SDS011;7843;50.330;7.312;2024-01-30T14:24:14;5.60;;;3.10;;
15482;SDS011;7843;50.330;7.312;2024-01-30T14:26:41;6.25;;;3.45;;
15482;SDS011;7843;50.330;7.312;2024-01-30T14:29:08;9.93;;;3.42;;
15482;SDS011;7843;50.330;7.312;2024-01-30T14:31:35;8.40;;;3.42;;
15482;SDS011;7843;50.330;7.312;2024-01-30T14:34:02;14.45;;;4.13;;
15482;SDS011;7843;50.330;7.312;2024-01-30T14:36:29;5.60;;;3.30;;
15482;SDS011;7843;50.330;7.312;2024-01-30T14:38:55;5.68;;;2.90;;
15482;SDS011;7843;50.330;7.312;2024-01-30T14:41:22;4.38;;;2.35;;
15482;SDS011;7843;50.330;7.312;2024-01-30T14:43:49;4.50;;;2.70;;
15482;SDS011;7843;50.330;7.312;2024-01-30T14:46:15;4.18;;;2.67;;
15482;SDS011;7843;50.330;7.312;2024-01-30T14:48:42;7.20;;;3.45;;
15482;SDS011;7843;50.330;7.312;2024-01-30T14:51:09;5.22;;;2.95;;
15482;SDS011;7843;50.330;7.312;2024-01-30T14:53:36;3.42;;;2.42;;
15482;SDS011;7843;50.330;7.312;2024-01-30T14:56:03;6.32;;;2.75;;
15482;SDS011;7843;50.330;7.312;2024-01-30T14:58:30;9.05;;;3.20;;
15482;SDS011;7843;50.330;7.312;2024-01-30T15:00:57;3.58;;;2.28;;
15482;SDS011;7843;50.330;7.312;2024-01-30T15:03:26;6.30;;;3.38;;
15482;SDS011;7843;50.330;7.312;2024-01-30T15:05:54;7.63;;;3.60;;